KDSM/DSM METAR and TAF weather

Enter ICAO airport designator
Station Type Date Time Source
KDSM METAR 2018/01/22 10:54 UTC NOAA

KDSM 221054Z 04015KT 10SM OVC003 04/03 A2941 RMK AO2 RAE22 PRESFR SLP965 P0002 T00390033 $


Station Type Date Time Source
KDSM Decoded METAR 2018/01/22 10:54 UTC NOAA

DES MOINES INTERNATIONAL, IA, United States (KDSM) 41-32N 93-40W 295M
Jan 22, 2018 - 05:54 AM EST / 2018.01.22 1054 UTC
Wind: from the NE (040 degrees) at 17 MPH (15 KT):0
Visibility: 10 mile(s):0
Sky conditions: overcast
Precipitation last hour: 0.02 inches
Temperature: 39.0 F (3.9 C)
Dew Point: 37.9 F (3.3 C)
Relative Humidity: 95%
Pressure (altimeter): 29.41 in. Hg (995 hPa)
Pressure tendency: falling rapidly
ob: KDSM 221054Z 04015KT 10SM OVC003 04/03 A2941 RMK AO2 RAE22 PRESFR SLP965 P0002 T00390033
cycle: 11

Station Type Date Time Source
KDSM TAF 2018/01/22 12:42 UTC NOAA

TAF KDSM 221140Z 2212/2312 05011G22KT P6SM -RA OVC003
FM221500 09009KT 2SM -RA BR OVC003
FM221600 09008KT 2SM BR VCSH OVC003
FM221800 04008KT 3SM BR VCSH OVC003
FM221900 03009KT 4SM -RA BR OVC003
FM230000 34014G20KT 4SM -DZ BR OVC006
FM230200 34018G26KT 3SM -DZ BR BLSN VCSH OVC006


Example: see airport list